createdAt,value
2019-04-03T00:00:49.199Z,70.81
2019-04-03T00:01:49.133Z,70.43
2019-04-03T00:02:49.139Z,70.34
2019-04-03T00:03:49.152Z,71.00
2019-04-03T00:04:49.218Z,70.72
2019-04-03T00:05:49.169Z,71.28
2019-04-03T00:06:49.176Z,70.34
2019-04-03T00:07:49.188Z,70.81
2019-04-03T00:08:49.195Z,71.00
2019-04-03T00:09:49.204Z,70.62
2019-04-03T00:10:49.230Z,70.62
2019-04-03T00:11:49.231Z,70.90
2019-04-03T00:12:49.327Z,71.28
2019-04-03T00:13:49.249Z,71.09
2019-04-03T00:14:49.259Z,71.66
2019-04-03T00:15:49.266Z,71.28
2019-04-03T00:16:49.273Z,70.90
2019-04-03T00:17:49.282Z,70.90
2019-04-03T00:18:49.297Z,72.14
2019-04-03T00:19:49.304Z,73.14
2019-04-03T00:20:49.319Z,74.09
2019-04-03T00:21:50.557Z,73.33
2019-04-03T00:22:49.897Z,73.71
2019-04-03T00:23:49.343Z,73.71
2019-04-03T00:24:51.989Z,73.43
2019-04-03T00:25:52.089Z,73.05
2019-04-03T00:26:51.878Z,72.96
2019-04-03T00:27:52.003Z,73.33
2019-04-03T00:28:50.713Z,73.71
2019-04-03T00:29:51.827Z,73.14
2019-04-03T00:30:49.409Z,72.48
2019-04-03T00:31:49.419Z,71.81
2019-04-03T00:32:49.429Z,72.38
2019-04-03T00:33:49.439Z,72.10
2019-04-03T00:34:49.572Z,71.95
2019-04-03T00:35:49.454Z,72.23
2019-04-03T00:36:49.488Z,71.95
2019-04-03T00:37:49.479Z,71.57
2019-04-03T00:38:49.484Z,71.57
2019-04-03T00:39:49.501Z,72.42
2019-04-03T00:40:49.505Z,72.99
2019-04-03T00:41:49.514Z,73.37
2019-04-03T00:42:49.523Z,73.18
2019-04-03T00:43:49.532Z,73.18
2019-04-03T00:44:49.546Z,72.80
2019-04-03T00:45:49.553Z,73.08
2019-04-03T00:46:49.563Z,72.99
2019-04-03T00:47:49.570Z,73.37
2019-04-03T00:48:49.698Z,72.99
2019-04-03T00:49:49.588Z,73.14
2019-04-03T00:50:49.721Z,72.80
2019-04-03T00:51:49.617Z,72.89
2019-04-03T00:52:49.733Z,73.18
2019-04-03T00:53:49.629Z,73.99
2019-04-03T00:54:49.738Z,73.61
2019-04-03T00:55:49.645Z,73.80
2019-04-03T00:56:49.658Z,74.09
2019-04-03T00:57:49.665Z,73.71
2019-04-03T00:58:49.673Z,73.99
2019-04-03T00:59:49.689Z,73.99
2019-04-03T01:00:49.696Z,73.90
2019-04-03T01:01:49.716Z,74.47
2019-04-03T01:02:49.717Z,74.56
2019-04-03T01:03:49.720Z,75.32
2019-04-03T01:04:49.738Z,75.13
2019-04-03T01:05:49.739Z,74.95
2019-04-03T01:06:49.749Z,74.66
2019-04-03T01:07:49.759Z,74.75
2019-04-03T01:08:49.773Z,75.60
2019-04-03T01:09:49.777Z,76.65
2019-04-03T01:10:49.791Z,77.12
2019-04-03T01:11:49.927Z,77.03
2019-04-03T01:12:49.806Z,76.74
2019-04-03T01:13:49.818Z,76.84
2019-04-03T01:14:49.828Z,76.46
2019-04-03T01:15:49.837Z,76.36
2019-04-03T01:16:49.843Z,75.98
2019-04-03T01:17:49.879Z,76.74
2019-04-03T01:18:49.862Z,78.35
2019-04-03T01:19:49.876Z,78.35
2019-04-03T01:20:49.884Z,78.73
2019-04-03T01:21:49.897Z,78.83
2019-04-03T01:22:49.903Z,78.41
2019-04-03T01:23:49.950Z,77.84
2019-04-03T01:24:49.917Z,79.17
2019-04-03T01:25:49.931Z,79.64
2019-04-03T01:26:50.099Z,79.55
2019-04-03T01:27:49.948Z,79.26
2019-04-03T01:28:49.958Z,78.79
2019-04-03T01:29:49.970Z,78.92
2019-04-03T01:30:49.979Z,78.50
2019-04-03T01:31:49.982Z,78.98
2019-04-03T01:32:49.990Z,80.58
2019-04-03T01:33:50.004Z,79.93
2019-04-03T01:34:50.010Z,80.87
2019-04-03T01:35:50.019Z,81.34
2019-04-03T01:36:50.030Z,82.86
2019-04-03T01:37:50.194Z,82.76
2019-04-03T01:38:50.357Z,82.67
2019-04-03T01:39:50.759Z,82.86
2019-04-03T01:40:50.591Z,81.53
2019-04-03T01:41:51.483Z,80.87
2019-04-03T01:42:52.158Z,81.72
2019-04-03T01:43:50.134Z,81.34
2019-04-03T01:44:50.112Z,81.34
2019-04-03T01:45:50.112Z,80.40
2019-04-03T01:46:50.120Z,80.68
2019-04-03T01:47:50.132Z,80.58
2019-04-03T01:48:50.260Z,80.77
2019-04-03T01:49:50.151Z,81.10
2019-04-03T01:50:50.158Z,80.82
2019-04-03T01:51:50.167Z,80.91
2019-04-03T01:52:50.180Z,80.53
2019-04-03T01:53:50.182Z,80.53
2019-04-03T01:54:50.216Z,81.57
2019-04-03T01:55:50.202Z,81.76
2019-04-03T01:56:50.213Z,81.57
2019-04-03T01:57:50.223Z,81.67
2019-04-03T01:58:50.231Z,81.86
2019-04-03T01:59:50.242Z,81.57
2019-04-03T02:00:50.262Z,81.95
2019-04-03T02:01:50.260Z,82.62
2019-04-03T02:02:50.267Z,82.76
2019-04-03T02:03:50.345Z,82.76
2019-04-03T02:04:50.284Z,83.52
2019-04-03T02:05:50.375Z,84.09
2019-04-03T02:06:50.303Z,83.90
2019-04-03T02:07:50.315Z,83.52
2019-04-03T02:08:50.324Z,83.14
2019-04-03T02:09:50.390Z,82.86
2019-04-03T02:10:50.342Z,83.43
2019-04-03T02:11:50.354Z,82.57
2019-04-03T02:12:51.213Z,82.67
2019-04-03T02:13:51.285Z,82.29
2019-04-03T02:14:51.560Z,82.10
2019-04-03T02:15:52.229Z,82.71
2019-04-03T02:16:53.000Z,82.24
2019-04-03T02:17:50.409Z,81.86
2019-04-03T02:18:50.415Z,82.05
2019-04-03T02:19:50.423Z,81.76
2019-04-03T02:20:50.429Z,81.48
2019-04-03T02:21:50.527Z,81.57
2019-04-03T02:22:50.453Z,81.01
2019-04-03T02:23:50.459Z,80.53
2019-04-03T02:24:50.468Z,80.82
2019-04-03T02:25:50.478Z,80.53
2019-04-03T02:26:50.488Z,80.82
2019-04-03T02:27:50.498Z,80.91
2019-04-03T02:28:50.502Z,80.44
2019-04-03T02:29:50.510Z,80.53
2019-04-03T02:30:50.526Z,81.20
2019-04-03T02:31:52.696Z,81.53
2019-04-03T02:32:50.545Z,80.68
2019-04-03T02:33:50.562Z,81.63
2019-04-03T02:34:50.709Z,82.01
2019-04-03T02:35:50.571Z,82.39
2019-04-03T02:36:50.579Z,82.20
2019-04-03T02:37:50.914Z,81.63
2019-04-03T02:38:51.508Z,82.01
2019-04-03T02:39:50.614Z,82.67
2019-04-03T02:40:50.617Z,82.39
2019-04-03T02:41:50.620Z,83.14
2019-04-03T02:42:50.639Z,83.90
2019-04-03T02:43:50.658Z,84.85
2019-04-03T02:44:51.720Z,84.94
2019-04-03T02:45:50.662Z,85.51
2019-04-03T02:46:50.666Z,85.70
2019-04-03T02:47:50.931Z,84.94
2019-04-03T02:48:50.684Z,85.23
2019-04-03T02:49:50.692Z,84.38
2019-04-03T02:50:50.707Z,84.28
2019-04-03T02:51:53.282Z,84.56
2019-04-03T02:52:50.718Z,84.85
2019-04-03T02:53:50.732Z,84.28
2019-04-03T02:54:50.738Z,84.56
2019-04-03T02:55:51.034Z,84.38
2019-04-03T02:56:50.760Z,84.75
2019-04-03T02:57:50.783Z,84.66
2019-04-03T02:58:53.557Z,83.71
2019-04-03T02:59:50.779Z,83.90
2019-04-03T03:00:50.790Z,83.14
2019-04-03T03:01:50.801Z,83.24
2019-04-03T03:02:50.809Z,83.33
2019-04-03T03:03:50.819Z,83.33
2019-04-03T03:04:54.044Z,83.62
2019-04-03T03:05:50.925Z,83.33
2019-04-03T03:06:50.845Z,83.24
2019-04-03T03:07:51.053Z,83.52
2019-04-03T03:08:50.904Z,83.14
2019-04-03T03:09:50.872Z,83.14
2019-04-03T03:10:51.779Z,82.76
2019-04-03T03:11:50.886Z,82.57
2019-04-03T03:12:50.896Z,81.92
2019-04-03T03:13:51.144Z,81.92
2019-04-03T03:14:50.927Z,81.92
2019-04-03T03:15:51.000Z,81.92
2019-04-03T03:16:51.241Z,82.01
2019-04-03T03:17:54.455Z,82.57
2019-04-03T03:18:50.951Z,82.01
2019-04-03T03:19:51.177Z,81.92
2019-04-03T03:20:50.965Z,82.67
2019-04-03T03:21:51.189Z,83.52
2019-04-03T03:22:51.653Z,85.32
2019-04-03T03:23:51.225Z,87.31
2019-04-03T03:24:51.011Z,87.98
2019-04-03T03:25:51.142Z,87.98
2019-04-03T03:26:51.027Z,87.78
2019-04-03T03:27:51.024Z,87.31
2019-04-03T03:28:51.033Z,86.93
2019-04-03T03:29:51.191Z,86.65
2019-04-03T03:30:59.549Z,85.80
2019-04-03T03:32:15.592Z,85.23
2019-04-03T03:32:52.012Z,85.04
2019-04-03T03:33:51.093Z,84.66
2019-04-03T03:35:04.895Z,84.56
2019-04-03T03:35:52.024Z,84.09
2019-04-03T03:36:54.656Z,84.94
2019-04-03T03:37:51.111Z,85.80
2019-04-03T03:38:51.132Z,86.46
2019-04-03T03:39:51.152Z,85.70
2019-04-03T03:40:51.292Z,87.21
2019-04-03T03:41:51.194Z,88.26
2019-04-03T03:42:51.372Z,88.92
2019-04-03T03:43:51.162Z,89.11
2019-04-03T03:44:51.171Z,89.39
2019-04-03T03:45:52.527Z,89.30
2019-04-03T03:46:51.191Z,88.82
2019-04-03T03:47:51.195Z,88.54
2019-04-03T03:48:51.207Z,88.26
2019-04-03T03:49:51.245Z,88.17
2019-04-03T03:50:51.238Z,88.54
2019-04-03T03:51:51.230Z,88.64
2019-04-03T03:52:51.240Z,88.64
2019-04-03T03:53:51.245Z,87.78
2019-04-03T03:54:52.280Z,87.98
2019-04-03T03:55:51.262Z,87.69
2019-04-03T03:56:51.270Z,88.35
2019-04-03T03:57:51.285Z,90.15
2019-04-03T03:58:51.297Z,90.01
2019-04-03T03:59:52.221Z,89.30
2019-04-03T04:00:52.945Z,89.68
2019-04-03T04:01:51.315Z,89.54
2019-04-03T04:02:51.320Z,89.06
2019-04-03T04:03:51.329Z,89.16
2019-04-03T04:04:51.340Z,89.01
2019-04-03T04:05:54.678Z,88.73
2019-04-03T04:06:51.624Z,89.20
2019-04-03T04:07:51.371Z,89.39
2019-04-03T04:08:51.369Z,89.96
2019-04-03T04:09:52.186Z,89.87
2019-04-03T04:10:51.387Z,90.34
2019-04-03T04:11:51.397Z,90.44
2019-04-03T04:12:51.417Z,90.53
2019-04-03T04:13:51.417Z,90.34
2019-04-03T04:14:54.717Z,89.87
2019-04-03T04:15:51.685Z,89.87
2019-04-03T04:16:51.447Z,89.30
2019-04-03T04:17:51.921Z,88.54
2019-04-03T04:18:55.497Z,88.64
2019-04-03T04:19:51.497Z,87.98
2019-04-03T04:20:51.478Z,87.98
2019-04-03T04:21:51.485Z,87.88
2019-04-03T04:22:51.685Z,87.98
2019-04-03T04:23:55.155Z,87.69
2019-04-03T04:24:51.507Z,87.88
2019-04-03T04:25:51.517Z,87.50
2019-04-03T04:26:51.525Z,87.21
2019-04-03T04:27:51.533Z,87.12
2019-04-03T04:28:51.540Z,86.46
2019-04-03T04:29:51.550Z,85.89
2019-04-03T04:30:51.648Z,85.70
2019-04-03T04:31:51.567Z,85.32
2019-04-03T04:32:51.583Z,85.32
2019-04-03T04:33:51.798Z,84.66
2019-04-03T04:34:51.597Z,84.75
2019-04-03T04:35:52.455Z,84.28
2019-04-03T04:36:53.078Z,84.38
2019-04-03T04:37:51.631Z,84.19
2019-04-03T04:38:51.799Z,84.09
2019-04-03T04:39:51.635Z,84.09
2019-04-03T04:40:51.641Z,84.38
2019-04-03T04:41:51.652Z,84.28
2019-04-03T04:42:51.658Z,84.19
2019-04-03T04:43:51.962Z,84.09
2019-04-03T04:44:51.677Z,84.47
2019-04-03T04:45:51.912Z,84.28
2019-04-03T04:46:51.696Z,84.38
2019-04-03T04:47:51.699Z,84.66
2019-04-03T04:48:52.404Z,84.75
2019-04-03T04:49:53.684Z,84.75
2019-04-03T04:50:54.193Z,84.28
2019-04-03T04:51:51.740Z,84.47
2019-04-03T04:52:51.748Z,84.28
2019-04-03T04:53:51.759Z,83.90
2019-04-03T04:54:51.762Z,83.62
2019-04-03T04:55:51.768Z,84.56
2019-04-03T04:56:51.813Z,84.47
2019-04-03T04:57:51.788Z,84.75
2019-04-03T04:58:51.793Z,85.42
2019-04-03T04:59:51.808Z,85.89
2019-04-03T05:00:53.499Z,86.27
2019-04-03T05:01:51.820Z,86.83
2019-04-03T05:02:51.832Z,86.65
2019-04-03T05:03:53.919Z,86.18
2019-04-03T05:04:51.850Z,86.55
2019-04-03T05:05:51.855Z,86.93
2019-04-03T05:06:51.863Z,87.12
2019-04-03T05:07:51.872Z,87.12
2019-04-03T05:08:51.879Z,86.18
2019-04-03T05:09:51.889Z,85.99
2019-04-03T05:10:51.909Z,85.89
2019-04-03T05:11:51.907Z,85.80
2019-04-03T05:12:51.919Z,86.08
2019-04-03T05:13:51.927Z,86.08
2019-04-03T05:14:51.931Z,85.89
2019-04-03T05:15:54.174Z,85.89
2019-04-03T05:16:51.948Z,86.46
2019-04-03T05:17:51.956Z,87.12
2019-04-03T05:18:51.965Z,87.98
2019-04-03T05:19:51.973Z,88.07
2019-04-03T05:20:51.981Z,88.07
2019-04-03T05:21:53.067Z,88.17
2019-04-03T05:22:54.537Z,87.50
2019-04-03T05:23:52.010Z,87.12
2019-04-03T05:24:52.017Z,87.02
2019-04-03T05:25:52.242Z,87.12
2019-04-03T05:26:52.032Z,86.65
2019-04-03T05:27:52.043Z,87.02
2019-04-03T05:28:55.868Z,86.55
2019-04-03T05:29:52.061Z,86.18
2019-04-03T05:30:52.071Z,85.70
2019-04-03T05:31:52.080Z,86.18
2019-04-03T05:32:52.088Z,86.93
2019-04-03T05:33:52.109Z,88.17
2019-04-03T05:34:52.109Z,88.87
2019-04-03T05:35:52.114Z,88.97
2019-04-03T05:36:52.116Z,88.17
2019-04-03T05:37:52.214Z,88.59
2019-04-03T05:38:53.772Z,88.40
2019-04-03T05:39:54.715Z,88.82
2019-04-03T05:40:52.153Z,88.82
2019-04-03T05:41:52.482Z,88.45
2019-04-03T05:42:52.172Z,88.73
2019-04-03T05:43:52.178Z,88.64
2019-04-03T05:44:52.202Z,88.45
2019-04-03T05:45:52.193Z,88.73
2019-04-03T05:46:52.200Z,88.92
2019-04-03T05:47:52.225Z,88.64
2019-04-03T05:48:52.315Z,88.73
2019-04-03T05:49:55.482Z,89.11
2019-04-03T05:50:52.240Z,88.78
2019-04-03T05:51:52.362Z,89.11
2019-04-03T05:52:52.256Z,88.73
2019-04-03T05:53:53.785Z,88.45
2019-04-03T05:54:52.272Z,87.59
2019-04-03T05:55:52.280Z,87.50
2019-04-03T05:56:52.285Z,87.31
2019-04-03T05:57:52.295Z,87.78
2019-04-03T05:58:56.714Z,87.98
2019-04-03T05:59:59.833Z,87.31
2019-04-03T06:01:03.450Z,87.50
2019-04-03T06:01:52.355Z,87.59
2019-04-03T06:02:53.131Z,87.31
2019-04-03T06:03:52.347Z,86.93
2019-04-03T06:04:52.388Z,86.46
2019-04-03T06:05:52.374Z,86.18
2019-04-03T06:06:52.385Z,86.55
2019-04-03T06:07:52.633Z,86.74
2019-04-03T06:08:52.400Z,86.27
2019-04-03T06:09:54.201Z,86.65
2019-04-03T06:10:52.404Z,86.93
2019-04-03T06:11:52.833Z,86.74
2019-04-03T06:12:52.623Z,86.83
2019-04-03T06:13:52.430Z,86.36
2019-04-03T06:14:52.439Z,86.46
2019-04-03T06:15:53.235Z,86.93
2019-04-03T06:16:55.466Z,86.93
2019-04-03T06:17:54.666Z,87.78
2019-04-03T06:18:52.474Z,88.45
2019-04-03T06:19:52.484Z,88.17
2019-04-03T06:20:52.502Z,87.88
2019-04-03T06:21:52.494Z,87.21
2019-04-03T06:22:52.568Z,86.93
2019-04-03T06:23:53.046Z,86.36
2019-04-03T06:24:53.972Z,85.80
2019-04-03T06:25:52.532Z,85.99
2019-04-03T06:26:52.677Z,85.61
2019-04-03T06:27:52.650Z,85.51
2019-04-03T06:28:52.556Z,85.42
2019-04-03T06:29:55.294Z,85.80
2019-04-03T06:30:54.187Z,86.18
2019-04-03T06:31:52.579Z,87.88
2019-04-03T06:32:54.750Z,89.58
2019-04-03T06:33:52.600Z,89.87
2019-04-03T06:34:52.606Z,91.48
2019-04-03T06:35:52.614Z,92.33
2019-04-03T06:36:52.622Z,92.71
2019-04-03T06:37:53.231Z,92.99
2019-04-03T06:38:52.642Z,93.08
2019-04-03T06:39:52.647Z,92.80
2019-04-03T06:40:52.929Z,92.52
2019-04-03T06:41:52.666Z,92.99
2019-04-03T06:42:52.678Z,92.90
2019-04-03T06:43:54.276Z,91.86
2019-04-03T06:44:53.883Z,91.00
2019-04-03T06:45:52.703Z,90.53
2019-04-03T06:46:54.787Z,90.06
2019-04-03T06:47:52.730Z,90.44
2019-04-03T06:48:55.032Z,90.53
2019-04-03T06:49:52.741Z,90.81
2019-04-03T06:50:52.746Z,92.14
2019-04-03T06:51:52.754Z,92.52
2019-04-03T06:52:53.134Z,93.08
2019-04-03T06:53:52.768Z,92.90
2019-04-03T06:54:52.927Z,92.24
2019-04-03T06:55:52.791Z,93.56
2019-04-03T06:56:53.132Z,94.27
2019-04-03T06:57:52.847Z,94.79
2019-04-03T06:58:52.813Z,93.27
2019-04-03T06:59:52.820Z,93.27
2019-04-03T07:00:54.758Z,91.86
2019-04-03T07:01:53.582Z,91.48
2019-04-03T07:02:53.109Z,91.86
2019-04-03T07:03:52.853Z,92.33
2019-04-03T07:04:52.862Z,93.80
2019-04-03T07:05:52.869Z,94.37
2019-04-03T07:06:55.357Z,94.93
2019-04-03T07:07:53.014Z,95.69
2019-04-03T07:08:52.894Z,96.26
2019-04-03T07:09:52.900Z,97.02
2019-04-03T07:10:55.750Z,96.64
2019-04-03T07:11:52.920Z,97.02
2019-04-03T07:12:52.929Z,97.02
2019-04-03T07:13:53.901Z,97.25
2019-04-03T07:14:52.941Z,97.06
2019-04-03T07:15:52.957Z,96.26
2019-04-03T07:16:52.961Z,96.73
2019-04-03T07:17:52.969Z,96.73
2019-04-03T07:18:52.977Z,98.20
2019-04-03T07:19:53.121Z,97.06
2019-04-03T07:20:52.996Z,95.83
2019-04-03T07:21:55.442Z,95.45
2019-04-03T07:22:53.065Z,94.79
2019-04-03T07:23:53.016Z,94.13
2019-04-03T07:24:53.038Z,96.50
2019-04-03T07:25:53.251Z,96.50
2019-04-03T07:26:53.043Z,96.02
2019-04-03T07:27:53.046Z,96.36
2019-04-03T07:28:53.065Z,93.23
2019-04-03T07:29:53.064Z,92.57
2019-04-03T07:30:53.943Z,91.10
2019-04-03T07:31:55.157Z,91.29
2019-04-03T07:32:53.085Z,90.81
2019-04-03T07:33:53.096Z,93.08
2019-04-03T07:34:53.359Z,92.47
2019-04-03T07:35:53.109Z,91.33
2019-04-03T07:36:53.124Z,91.24
2019-04-03T07:37:53.130Z,90.29
2019-04-03T07:38:53.355Z,91.81
2019-04-03T07:39:53.146Z,90.67
2019-04-03T07:40:53.162Z,90.29
2019-04-03T07:41:54.408Z,91.24
2019-04-03T07:42:55.661Z,91.14
2019-04-03T07:43:53.174Z,90.01
2019-04-03T07:44:53.189Z,90.91
2019-04-03T07:45:53.198Z,89.48
2019-04-03T07:46:54.956Z,90.43
2019-04-03T07:47:53.470Z,91.28
2019-04-03T07:48:53.222Z,88.63
2019-04-03T07:49:53.226Z,87.12
2019-04-03T07:50:53.233Z,86.93
2019-04-03T07:51:53.251Z,86.16
2019-04-03T07:52:53.252Z,86.35
2019-04-03T07:53:53.259Z,86.26
2019-04-03T07:54:56.440Z,85.03
2019-04-03T07:55:55.020Z,83.13
2019-04-03T07:56:54.770Z,83.04
2019-04-03T07:57:53.291Z,84.55
2019-04-03T07:58:53.649Z,85.03
2019-04-03T07:59:53.311Z,84.46
2019-04-03T08:00:53.315Z,82.94
2019-04-03T08:01:53.327Z,83.13
2019-04-03T08:02:53.519Z,83.89
2019-04-03T08:03:53.460Z,84.80
2019-04-03T08:04:55.728Z,85.03
2019-04-03T08:05:55.902Z,85.13
2019-04-03T08:06:53.514Z,84.94
2019-04-03T08:07:53.378Z,85.27
2019-04-03T08:09:06.495Z,85.36
2019-04-03T08:09:53.395Z,85.65
2019-04-03T08:10:53.402Z,85.84
2019-04-03T08:11:53.408Z,87.16
2019-04-03T08:12:53.422Z,85.74
2019-04-03T08:13:53.426Z,86.16
2019-04-03T08:14:53.435Z,85.60
2019-04-03T08:15:53.450Z,86.45
2019-04-03T08:16:56.169Z,84.74
2019-04-03T08:17:54.056Z,84.08
2019-04-03T08:18:53.762Z,82.66
2019-04-03T08:19:54.666Z,83.23
2019-04-03T08:20:53.492Z,83.70
2019-04-03T08:21:53.502Z,82.94
2019-04-03T08:22:53.506Z,84.55
2019-04-03T08:23:53.516Z,83.98
2019-04-03T08:24:53.888Z,83.04
2019-04-03T08:25:54.702Z,83.98
2019-04-03T08:26:53.607Z,83.89
2019-04-03T08:27:55.374Z,84.88
2019-04-03T08:28:53.868Z,84.03
2019-04-03T08:29:53.564Z,81.09
2019-04-03T08:30:53.835Z,81.37
2019-04-03T08:31:53.677Z,82.23
2019-04-03T08:32:53.790Z,81.09
2019-04-03T08:33:53.604Z,80.90
2019-04-03T08:34:53.613Z,80.52
2019-04-03T08:35:53.615Z,78.72
2019-04-03T08:36:53.630Z,78.81
2019-04-03T08:37:53.635Z,79.91
2019-04-03T08:38:53.649Z,79.53
2019-04-03T08:39:53.660Z,79.76
2019-04-03T08:40:53.766Z,79.38
2019-04-03T08:41:55.861Z,79.57
2019-04-03T08:42:53.682Z,79.25
2019-04-03T08:43:53.871Z,80.67
2019-04-03T08:44:53.696Z,80.76
2019-04-03T08:45:53.940Z,79.15
2019-04-03T08:46:53.725Z,80.00
2019-04-03T08:47:53.779Z,81.43
2019-04-03T08:48:55.086Z,78.20
2019-04-03T08:49:56.439Z,81.09
2019-04-03T08:50:53.758Z,80.99
2019-04-03T08:51:53.761Z,78.15
2019-04-03T08:52:53.770Z,78.05
2019-04-03T08:53:54.841Z,78.85
2019-04-03T08:54:53.788Z,77.81
2019-04-03T08:55:56.406Z,77.05
2019-04-03T08:56:53.808Z,75.34
2019-04-03T08:57:54.215Z,75.05
2019-04-03T08:58:56.520Z,75.72
2019-04-03T08:59:53.839Z,75.15
2019-04-03T09:00:53.839Z,77.62
2019-04-03T09:01:55.754Z,78.38
2019-04-03T09:02:53.862Z,76.99
2019-04-03T09:03:53.872Z,74.24
2019-04-03T09:04:54.359Z,74.71
2019-04-03T09:05:55.617Z,74.05
2019-04-03T09:06:54.650Z,71.92
2019-04-03T09:07:56.106Z,73.16
2019-04-03T09:08:53.916Z,72.78
2019-04-03T09:09:54.168Z,74.30
2019-04-03T09:10:53.950Z,73.92
2019-04-03T09:11:53.946Z,73.25
2019-04-03T09:12:53.955Z,74.49
2019-04-03T09:13:54.814Z,74.43
2019-04-03T09:14:54.963Z,70.25
2019-04-03T09:15:53.985Z,70.25
2019-04-03T09:16:54.039Z,70.15
2019-04-03T09:17:54.015Z,68.86
2019-04-03T09:18:54.010Z,67.82
2019-04-03T09:19:56.299Z,67.82
2019-04-03T09:20:54.036Z,68.10
2019-04-03T09:21:54.221Z,67.82
2019-04-03T09:22:54.499Z,68.10
2019-04-03T09:23:56.720Z,68.10
2019-04-03T09:24:54.291Z,67.82
2019-04-03T09:25:54.085Z,68.10
2019-04-03T09:26:54.264Z,68.16
2019-04-03T09:27:54.105Z,69.24
2019-04-03T09:28:54.112Z,68.48
2019-04-03T09:29:54.120Z,67.34
2019-04-03T09:30:54.193Z,66.87
2019-04-03T09:31:55.937Z,67.44
2019-04-03T09:32:54.468Z,69.49
2019-04-03T09:33:56.271Z,70.76
2019-04-03T09:34:54.179Z,67.69
2019-04-03T09:35:54.302Z,68.73
2019-04-03T09:36:54.243Z,68.51
2019-04-03T09:37:54.329Z,69.46
2019-04-03T09:38:54.218Z,68.83
2019-04-03T09:39:54.226Z,68.16
2019-04-03T09:40:54.233Z,66.77
2019-04-03T09:41:54.258Z,65.63
2019-04-03T09:42:54.257Z,65.92
2019-04-03T09:43:54.734Z,65.82
2019-04-03T09:44:56.258Z,67.50
2019-04-03T09:45:54.289Z,68.73
2019-04-03T09:46:54.293Z,68.07
2019-04-03T09:47:54.447Z,65.98
2019-04-03T09:48:54.317Z,64.46
2019-04-03T09:49:54.327Z,63.92
2019-04-03T09:50:54.412Z,63.83
2019-04-03T09:51:54.576Z,62.31
2019-04-03T09:52:55.337Z,61.55
2019-04-03T09:53:56.976Z,61.83
2019-04-03T09:54:54.377Z,63.67
2019-04-03T09:55:54.655Z,62.97
2019-04-03T09:57:03.016Z,62.18
2019-04-03T09:57:54.406Z,63.89
2019-04-03T09:58:56.193Z,63.32
2019-04-03T09:59:54.767Z,64.97
2019-04-03T10:00:54.440Z,63.17
2019-04-03T10:01:54.449Z,62.85
2019-04-03T10:02:54.473Z,64.11
2019-04-03T10:03:55.748Z,63.60
2019-04-03T10:04:57.303Z,64.02
2019-04-03T10:05:54.493Z,63.35
2019-04-03T10:06:54.507Z,64.49
2019-04-03T10:07:54.518Z,64.97
2019-04-03T10:08:54.670Z,61.83
2019-04-03T10:09:54.894Z,62.72
2019-04-03T10:10:54.544Z,62.31
2019-04-03T10:11:54.553Z,63.67
2019-04-03T10:12:54.720Z,63.51
2019-04-03T10:13:54.937Z,63.89
2019-04-03T10:14:54.588Z,61.52
2019-04-03T10:15:54.950Z,59.80
2019-04-03T10:16:54.606Z,60.38
2019-04-03T10:17:54.626Z,59.80
2019-04-03T10:18:54.802Z,58.95
2019-04-03T10:19:54.641Z,58.85
2019-04-03T10:20:54.654Z,57.84
2019-04-03T10:21:54.941Z,57.74
2019-04-03T10:22:56.255Z,56.41
2019-04-03T10:23:54.686Z,56.70
2019-04-03T10:24:54.698Z,56.12
2019-04-03T10:25:54.707Z,54.10
2019-04-03T10:26:54.883Z,53.91
2019-04-03T10:27:54.730Z,54.26
2019-04-03T10:28:54.869Z,56.54
2019-04-03T10:29:56.332Z,58.95
2019-04-03T10:30:54.762Z,58.18
2019-04-03T10:31:55.791Z,59.80
2019-04-03T10:32:54.816Z,58.09
2019-04-03T10:33:54.799Z,56.98
2019-04-03T10:34:57.147Z,57.17
2019-04-03T10:35:54.854Z,54.50
2019-04-03T10:36:54.832Z,55.46
2019-04-03T10:37:55.120Z,55.65
2019-04-03T10:38:54.852Z,54.41
2019-04-03T10:39:55.016Z,51.65
2019-04-03T10:40:56.220Z,54.44
2019-04-03T10:41:55.067Z,55.49
2019-04-03T10:42:55.283Z,55.01
2019-04-03T10:43:54.914Z,53.30
2019-04-03T10:44:54.923Z,53.43
2019-04-03T10:45:54.941Z,54.10
2019-04-03T10:46:54.949Z,55.52
2019-04-03T10:47:56.328Z,55.30
2019-04-03T10:48:55.010Z,54.86
2019-04-03T10:49:55.339Z,54.57
2019-04-03T10:50:55.163Z,54.32
2019-04-03T10:51:55.158Z,51.37
2019-04-03T10:52:55.371Z,51.91
2019-04-03T10:53:55.046Z,53.24
2019-04-03T10:54:56.841Z,54.07
2019-04-03T10:55:55.057Z,54.80
2019-04-03T10:56:55.348Z,56.83
2019-04-03T10:57:55.210Z,56.85
2019-04-03T10:58:55.215Z,55.52
2019-04-03T10:59:55.610Z,54.10
2019-04-03T11:00:55.123Z,52.67
2019-04-03T11:01:55.175Z,52.64
2019-04-03T11:02:55.144Z,54.07
2019-04-03T11:03:55.221Z,55.21
2019-04-03T11:04:55.481Z,55.71
2019-04-03T11:05:55.181Z,54.57
2019-04-03T11:06:55.199Z,54.10
2019-04-03T11:07:55.210Z,56.48
2019-04-03T11:08:55.370Z,52.80
2019-04-03T11:09:55.292Z,50.13
2019-04-03T11:10:55.929Z,49.56
2019-04-03T11:11:55.258Z,45.95
2019-04-03T11:12:55.690Z,44.23
2019-04-03T11:13:55.535Z,44.04
2019-04-03T11:14:55.290Z,45.66
2019-04-03T11:15:55.301Z,47.18
2019-04-03T11:16:55.314Z,46.20
2019-04-03T11:17:55.330Z,46.01
2019-04-03T11:18:59.805Z,46.88
2019-04-03T11:19:55.350Z,48.77
2019-04-03T11:20:55.711Z,50.84
2019-04-03T11:21:56.458Z,50.37
2019-04-03T11:23:05.373Z,48.49
2019-04-03T11:23:55.537Z,47.25
2019-04-03T11:24:55.411Z,48.30
2019-04-03T11:25:55.776Z,50.10
2019-04-03T11:26:55.436Z,51.06
2019-04-03T11:27:55.448Z,51.06
2019-04-03T11:28:55.461Z,50.01
2019-04-03T11:29:55.480Z,48.13
2019-04-03T11:31:00.074Z,45.75
2019-04-03T11:31:55.496Z,44.21
2019-04-03T11:32:55.841Z,45.73
2019-04-03T11:33:55.533Z,48.27
2019-04-03T11:34:55.535Z,47.99
2019-04-03T11:35:55.545Z,48.11
2019-04-03T11:36:55.562Z,46.20
2019-04-03T11:37:55.584Z,43.90
2019-04-03T11:39:08.892Z,43.71
2019-04-03T11:40:02.369Z,46.75
2019-04-03T11:40:56.010Z,47.52
2019-04-03T11:41:56.334Z,47.02
2019-04-03T11:42:55.636Z,47.04
2019-04-03T11:43:55.642Z,45.40
2019-04-03T11:44:55.682Z,44.95
2019-04-03T11:45:55.908Z,46.00
2019-04-03T11:46:55.909Z,46.56
2019-04-03T11:47:55.692Z,46.94
2019-04-03T11:48:55.713Z,48.77
2019-04-03T11:49:55.717Z,47.25
2019-04-03T11:50:56.605Z,47.82
2019-04-03T11:51:55.737Z,44.76
2019-04-03T11:52:55.754Z,42.88
2019-04-03T11:53:55.762Z,43.54
2019-04-03T11:54:55.780Z,44.80
2019-04-03T11:55:55.789Z,43.09
2019-04-03T11:56:56.651Z,41.66
2019-04-03T11:57:56.060Z,40.52
2019-04-03T11:58:55.821Z,39.65
2019-04-03T11:59:57.117Z,39.13
2019-04-03T12:00:55.841Z,41.43
2019-04-03T12:01:55.857Z,40.48
2019-04-03T12:02:55.869Z,38.96
2019-04-03T12:03:55.882Z,37.71
2019-04-03T12:04:55.891Z,39.15
2019-04-03T12:05:55.907Z,39.72
2019-04-03T12:06:55.916Z,39.55
2019-04-03T12:07:56.961Z,38.03
2019-04-03T12:08:55.934Z,37.37
2019-04-03T12:09:56.169Z,38.22
2019-04-03T12:10:56.244Z,37.93
2019-04-03T12:11:55.972Z,36.87
2019-04-03T12:12:56.061Z,36.40
2019-04-03T12:13:56.188Z,36.02
2019-04-03T12:14:56.007Z,36.58
2019-04-03T12:15:58.168Z,37.44
2019-04-03T12:16:58.344Z,37.73
2019-04-03T12:17:56.039Z,37.33
2019-04-03T12:18:56.154Z,37.80
2019-04-03T12:19:56.061Z,37.71
2019-04-03T12:20:56.074Z,38.20
2019-04-03T12:21:56.079Z,38.18
2019-04-03T12:22:56.091Z,38.29
2019-04-03T12:23:58.021Z,38.29
2019-04-03T12:24:56.113Z,37.82
2019-04-03T12:25:56.121Z,37.15
2019-04-03T12:26:56.467Z,36.87
2019-04-03T12:27:56.148Z,37.25
2019-04-03T12:28:56.155Z,38.89
2019-04-03T12:29:56.204Z,38.12
2019-04-03T12:30:56.178Z,37.74
2019-04-03T12:31:56.189Z,38.41
2019-04-03T12:32:56.206Z,38.24
2019-04-03T12:34:02.706Z,37.37
2019-04-03T12:34:56.394Z,38.12
2019-04-03T12:35:56.470Z,38.60
2019-04-03T12:36:56.240Z,39.09
2019-04-03T12:37:56.255Z,37.88
2019-04-03T12:38:57.186Z,36.24
2019-04-03T12:39:56.344Z,35.38
2019-04-03T12:40:56.289Z,36.91
2019-04-03T12:41:56.295Z,36.91
2019-04-03T12:42:56.446Z,36.43
2019-04-03T12:43:56.320Z,38.54
2019-04-03T12:44:56.333Z,40.28
2019-04-03T12:45:58.828Z,35.60
2019-04-03T12:46:56.357Z,35.19
2019-04-03T12:47:56.677Z,35.38
2019-04-03T12:48:56.536Z,35.75
2019-04-03T12:49:56.609Z,36.53
2019-04-03T12:50:56.915Z,36.43
2019-04-03T12:51:56.765Z,37.02
2019-04-03T12:52:56.423Z,36.15